Time;durP1;ratioP1;P1;durP2;ratioP2;P2;SDS_P1;SDS_P2;PMS_P1;PMS_P2;Temp;Humidity;BMP_temperature;BMP_pressure;BME280_temperature;BME280_humidity;BME280_pressure;Samples;Min_cycle;Max_cycle;Signal;HPM_P1;HPM_P2
2022/11/08 00:01:36;;;;;;;14.70;5.45;;;;;;;1.51;100.00;95621.66;4991709;28;20519;-70
2022/11/08 00:04:10;;;;;;;14.38;5.45;;;;;;;1.51;100.00;95626.84;4991039;28;20053;-69
2022/11/08 00:14:48;;;;;;;14.50;5.22;;;;;;;1.43;100.00;95628.91;4980584;28;20073;-69
2022/11/08 00:17:16;;;;;;;12.73;4.97;;;;;;;1.39;100.00;95628.50;4973406;28;20507;-69
2022/11/08 00:19:42;;;;;;;12.75;5.57;;;;;;;1.30;100.00;95624.59;4990357;28;20049;-68
2022/11/08 00:22:11;;;;;;;14.35;5.32;;;;;;;1.31;100.00;95621.00;4973807;28;20070;-68
2022/11/08 00:24:37;;;;;;;12.23;5.60;;;;;;;1.28;100.00;95621.38;4991353;28;20050;-70
2022/11/08 00:27:06;;;;;;;12.05;5.00;;;;;;;1.29;100.00;95623.00;4972437;28;20050;-70
2022/11/08 00:29:34;;;;;;;12.65;4.85;;;;;;;1.26;100.00;95623.41;4990411;28;20141;-69
2022/11/08 00:32:01;;;;;;;10.88;4.70;;;;;;;1.21;100.00;95611.84;4991127;28;20470;-69
2022/11/08 00:34:27;;;;;;;9.93;4.95;;;;;;;1.19;100.00;95613.06;4990237;28;20046;-68
2022/11/08 00:36:53;;;;;;;10.10;4.85;;;;;;;1.21;100.00;95617.03;4971416;28;20139;-69
2022/11/08 00:39:19;;;;;;;10.93;5.25;;;;;;;1.14;100.00;95605.91;4985834;28;20053;-69
2022/11/08 00:41:45;;;;;;;14.95;5.30;;;;;;;1.20;100.00;95619.84;4991171;28;20132;-69
2022/11/08 00:44:11;;;;;;;11.55;5.18;;;;;;;1.16;100.00;95609.06;4981832;28;20709;-70
2022/11/08 00:46:37;;;;;;;11.13;5.20;;;;;;;1.14;100.00;95603.31;4970910;28;20058;-69
2022/11/08 00:49:04;;;;;;;11.00;4.80;;;;;;;1.14;100.00;95608.50;4982518;28;20066;-68
2022/11/08 00:51:30;;;;;;;12.00;5.15;;;;;;;1.11;100.00;95595.97;4990709;28;20058;-69
2022/11/08 00:53:55;;;;;;;12.98;4.90;;;;;;;1.07;100.00;95599.97;4990518;28;20503;-69
2022/11/08 00:56:21;;;;;;;12.85;4.85;;;;;;;1.08;100.00;95601.56;4985650;28;20043;-70
2022/11/08 00:58:46;;;;;;;11.50;5.25;;;;;;;1.04;100.00;95597.78;4978355;28;20050;-69
2022/11/08 01:01:15;;;;;;;11.30;4.50;;;;;;;1.07;100.00;95589.59;4989889;28;20034;-68
2022/11/08 01:03:41;;;;;;;10.13;5.00;;;;;;;1.02;100.00;95586.81;4990552;28;20072;-69
2022/11/08 01:06:08;;;;;;;9.32;3.80;;;;;;;0.98;100.00;95596.03;4977142;28;20043;-68
2022/11/08 01:08:33;;;;;;;11.85;4.85;;;;;;;0.97;100.00;95578.88;4990462;28;20120;-68
2022/11/08 01:11:05;;;;;;;11.73;4.43;;;;;;;0.94;100.00;95580.09;4990416;28;20050;-68
2022/11/08 01:13:31;;;;;;;10.02;4.43;;;;;;;0.91;100.00;95579.72;4989158;28;20050;-69
2022/11/08 01:15:56;;;;;;;11.98;3.97;;;;;;;0.83;100.00;95573.78;4990209;28;20064;-69
2022/11/08 01:18:22;;;;;;;10.38;4.53;;;;;;;0.86;100.00;95573.34;4972407;28;20050;-69
2022/11/08 01:20:48;;;;;;;9.38;4.35;;;;;;;0.83;100.00;95571.19;4982602;28;20062;-69
2022/11/08 01:23:16;;;;;;;8.70;4.03;;;;;;;0.85;100.00;95566.56;4990178;28;20038;-69
2022/11/08 01:25:45;;;;;;;13.55;4.15;;;;;;;0.90;100.00;95562.56;4990188;28;20042;-69
2022/11/08 01:28:12;;;;;;;9.88;4.15;;;;;;;0.97;100.00;95563.34;4976471;28;20078;-70
2022/11/08 01:30:39;;;;;;;7.10;3.35;;;;;;;0.97;100.00;95563.34;4990594;28;20062;-70
2022/11/08 01:33:05;;;;;;;8.07;3.92;;;;;;;0.99;100.00;95558.72;4976105;28;20066;-69
2022/11/08 01:35:31;;;;;;;8.40;3.72;;;;;;;0.94;100.00;95558.56;4973096;28;20047;-69
2022/11/08 01:37:58;;;;;;;14.57;3.70;;;;;;;0.89;100.00;95555.78;4989722;28;20074;-70
2022/11/08 01:40:24;;;;;;;9.40;4.22;;;;;;;0.98;100.00;95555.34;4988337;28;20050;-70
2022/11/08 01:42:50;;;;;;;7.70;3.70;;;;;;;0.97;100.00;95552.97;4989763;28;20069;-70
2022/11/08 01:45:54;;;;;;;8.75;4.03;;;;;;;0.85;100.00;95551.03;4990171;28;20047;-70
2022/11/08 01:48:19;;;;;;;7.07;3.55;;;;;;;0.82;100.00;95545.44;4971637;28;20055;-70
2022/11/08 01:50:45;;;;;;;14.75;3.83;;;;;;;0.83;100.00;95545.28;4974052;28;20105;-70
2022/11/08 01:53:11;;;;;;;8.98;3.55;;;;;;;0.83;100.00;95542.69;4998089;28;20042;-70
2022/11/08 01:55:37;;;;;;;10.27;3.80;;;;;;;0.78;100.00;95534.72;4985927;28;20484;-70
2022/11/08 01:58:08;;;;;;;8.95;3.88;;;;;;;0.80;100.00;95537.88;4990401;28;20050;-70
2022/11/08 02:00:36;;;;;;;11.45;4.18;;;;;;;0.81;100.00;95534.31;4990557;28;20054;-69
2022/11/08 02:03:04;;;;;;;10.48;3.72;;;;;;;0.79;100.00;95525.13;4998387;28;20050;-70
2022/11/08 02:05:30;;;;;;;7.93;3.85;;;;;;;0.87;100.00;95532.69;5005538;28;20050;-69
2022/11/08 02:08:05;;;;;;;8.07;3.65;;;;;;;0.88;100.00;95523.09;4998338;28;20038;-70
2022/11/08 02:10:40;;;;;;;8.65;3.78;;;;;;;0.88;100.00;95528.28;5007419;28;20046;-68
2022/11/08 02:13:15;;;;;;;9.45;3.15;;;;;;;0.85;100.00;95525.13;4999877;28;20040;-69
2022/11/08 02:15:42;;;;;;;7.97;3.70;;;;;;;0.79;100.00;95515.59;4990764;28;20047;-69
2022/11/08 02:18:08;;;;;;;8.40;3.80;;;;;;;0.71;100.00;95508.06;4988572;28;20085;-69
2022/11/08 02:20:34;;;;;;;9.68;3.45;;;;;;;0.70;100.00;95514.22;4993441;28;20054;-69
2022/11/08 02:23:25;;;;;;;11.27;3.85;;;;;;;0.61;100.00;95503.31;4993578;28;20046;-69
2022/11/08 02:25:51;;;;;;;7.88;3.40;;;;;;;0.58;100.00;95502.94;4963532;28;20442;-70
2022/11/08 02:28:17;;;;;;;14.88;4.20;;;;;;;0.54;100.00;95501.75;5002498;28;20251;-70
2022/11/08 02:30:43;;;;;;;7.20;3.33;;;;;;;0.57;100.00;95501.34;4993073;28;20665;-69
2022/11/08 02:33:28;;;;;;;7.78;3.45;;;;;;;0.60;100.00;95503.53;4991818;28;20053;-69
2022/11/08 02:35:56;;;;;;;8.82;3.53;;;;;;;0.58;100.00;95505.53;4985157;28;20048;-69
2022/11/08 02:38:23;;;;;;;7.40;3.55;;;;;;;0.55;100.00;95503.34;5004879;28;20099;-70
2022/11/08 02:40:52;;;;;;;10.10;3.83;;;;;;;0.57;100.00;95506.53;4987308;28;20042;-69
2022/11/08 02:43:18;;;;;;;8.75;3.20;;;;;;;0.51;100.00;95498.56;4979793;28;20403;-68
2022/11/08 02:45:44;;;;;;;8.13;3.75;;;;;;;0.49;100.00;95495.41;4995370;28;20058;-69
2022/11/08 02:48:10;;;;;;;8.25;3.50;;;;;;;0.47;100.00;95494.81;5001527;28;20041;-69
2022/11/08 02:50:36;;;;;;;8.35;3.25;;;;;;;0.44;100.00;95497.81;4993401;28;20046;-68
2022/11/08 02:53:01;;;;;;;9.27;3.60;;;;;;;0.40;100.00;95496.63;4992790;28;20073;-69
2022/11/08 02:55:28;;;;;;;10.05;3.72;;;;;;;0.33;100.00;95504.44;4989164;28;20534;-69
2022/11/08 02:57:54;;;;;;;7.35;3.50;;;;;;;0.37;100.00;95489.28;5003190;28;20064;-69
2022/11/08 03:00:19;;;;;;;12.20;3.95;;;;;;;0.37;100.00;95491.84;4992744;28;20050;-69
2022/11/08 03:02:50;;;;;;;7.35;3.83;;;;;;;0.29;100.00;95485.13;4992476;28;20098;-69
2022/11/08 03:05:16;;;;;;;9.70;3.80;;;;;;;0.27;100.00;95475.97;4986266;28;20038;-69
2022/11/08 03:07:42;;;;;;;8.90;3.20;;;;;;;0.32;100.00;95481.34;5000816;28;20038;-68
2022/11/08 03:10:09;;;;;;;8.70;3.33;;;;;;;0.27;100.00;95475.97;4992241;28;20404;-69
2022/11/08 03:12:35;;;;;;;5.95;3.03;;;;;;;0.25;100.00;95483.16;4975105;28;20050;-70
2022/11/08 03:15:00;;;;;;;6.47;3.15;;;;;;;0.21;100.00;95479.38;4987477;28;20057;-70
2022/11/08 03:17:26;;;;;;;6.25;2.88;;;;;;;0.16;100.00;95470.44;4999052;28;20038;-70
2022/11/08 03:19:52;;;;;;;7.50;3.33;;;;;;;0.12;100.00;95474.44;4997800;28;20050;-70
2022/11/08 03:22:18;;;;;;;9.35;3.25;;;;;;;0.11;100.00;95472.84;4992153;28;20423;-70
2022/11/08 03:24:44;;;;;;;6.80;3.22;;;;;;;0.14;100.00;95472.44;4990960;28;20050;-69
2022/11/08 03:27:09;;;;;;;9.90;3.15;;;;;;;0.15;100.00;95476.59;4996865;28;20049;-70
2022/11/08 03:29:35;;;;;;;8.68;3.58;;;;;;;0.20;100.00;95470.03;4993249;28;20042;-69
2022/11/08 03:32:00;;;;;;;7.13;3.20;;;;;;;0.05;100.00;95478.84;4992122;28;20551;-69
2022/11/08 03:34:26;;;;;;;4.85;2.65;;;;;;;0.00;100.00;95476.06;4992473;28;20046;-68
2022/11/08 03:36:51;;;;;;;10.88;3.03;;;;;;;0.05;100.00;95476.25;4996485;28;20423;-69
2022/11/08 03:39:17;;;;;;;8.45;3.22;;;;;;;0.15;100.00;95478.41;4995074;28;20052;-69
2022/11/08 03:41:42;;;;;;;8.70;3.22;;;;;;;0.21;100.00;95477.59;4988062;28;20046;-70
2022/11/08 03:44:08;;;;;;;6.20;3.17;;;;;;;0.06;100.00;95470.06;4991750;28;20042;-69
2022/11/08 03:46:33;;;;;;;6.70;3.13;;;;;;;-0.02;100.00;95470.28;4994742;28;20039;-71
2022/11/08 03:48:59;;;;;;;6.32;2.97;;;;;;;-0.05;100.00;95468.13;5003928;28;20553;-70
2022/11/08 03:51:24;;;;;;;10.57;3.13;;;;;;;0.12;100.00;95469.25;4991168;28;20038;-70
2022/11/08 03:53:50;;;;;;;7.57;2.90;;;;;;;0.12;100.00;95469.25;4991834;28;20058;-69
2022/11/08 03:56:15;;;;;;;5.95;3.10;;;;;;;-0.18;100.00;95464.56;4968742;28;20050;-69
2022/11/08 03:58:41;;;;;;;6.90;3.15;;;;;;;-0.20;100.00;95461.38;5003903;28;20053;-69
2022/11/08 04:01:07;;;;;;;5.28;2.70;;;;;;;-0.13;100.00;95465.75;5003162;28;20053;-69
2022/11/08 04:03:33;;;;;;;6.72;3.33;;;;;;;-0.13;100.00;95461.38;4991493;28;20049;-69
2022/11/08 04:06:00;;;;;;;5.35;3.03;;;;;;;-0.12;100.00;95451.81;4985595;28;20045;-69
2022/11/08 04:08:26;;;;;;;7.32;2.92;;;;;;;-0.09;100.00;95461.75;5002713;28;20050;-69
2022/11/08 04:10:56;;;;;;;8.88;3.17;;;;;;;-0.06;100.00;95451.00;5000116;28;20096;-69
2022/11/08 04:16:06;;;;;;;6.50;3.00;;;;;;;0.04;100.00;95451.34;4985643;28;20130;-69
2022/11/08 04:21:18;;;;;;;5.28;2.70;;;;;;;-0.14;100.00;95448.63;4993381;28;20046;-69
2022/11/08 04:23:45;;;;;;;5.30;2.63;;;;;;;-0.22;100.00;95442.66;4988209;28;20038;-69
2022/11/08 04:26:11;;;;;;;7.07;3.10;;;;;;;-0.19;100.00;95442.28;4985646;28;20042;-69
2022/11/08 04:28:39;;;;;;;7.95;3.55;;;;;;;-0.15;100.00;95447.06;5000458;28;20053;-69
2022/11/08 04:31:16;;;;;;;6.35;2.97;;;;;;;-0.12;100.00;95441.47;5002758;28;20042;-69
2022/11/08 04:33:42;;;;;;;7.30;3.42;;;;;;;-0.04;100.00;95447.22;4989910;28;20495;-69
2022/11/08 04:36:13;;;;;;;7.05;3.00;;;;;;;-0.03;100.00;95445.41;4996269;28;20048;-69
2022/11/08 04:38:38;;;;;;;8.27;2.83;;;;;;;-0.14;100.00;95435.69;4999251;28;20050;-69
2022/11/08 04:41:10;;;;;;;8.05;3.58;;;;;;;-0.11;100.00;95437.88;4996077;28;20104;-69
2022/11/08 04:43:36;;;;;;;5.95;3.15;;;;;;;-0.21;100.00;95431.34;4990758;28;20050;-69
2022/11/08 04:46:07;;;;;;;7.93;2.80;;;;;;;-0.30;100.00;95440.31;4990511;28;20046;-69
2022/11/08 04:48:34;;;;;;;8.05;3.05;;;;;;;-0.34;100.00;95433.97;4988373;28;20046;-68
2022/11/08 04:51:09;;;;;;;6.03;3.00;;;;;;;-0.29;100.00;95425.59;4990544;28;20054;-69
2022/11/08 04:53:35;;;;;;;8.77;3.00;;;;;;;-0.30;100.00;95429.97;4989888;28;20034;-68
2022/11/08 04:56:02;;;;;;;7.97;2.97;;;;;;;-0.30;100.00;95434.34;4990967;28;20108;-69
2022/11/08 04:58:36;;;;;;;9.45;3.13;;;;;;;-0.39;100.00;95424.22;4997239;28;20045;-71
2022/11/08 05:01:03;;;;;;;6.68;2.78;;;;;;;-0.40;100.00;95429.59;4996845;28;20133;-68
2022/11/08 05:03:30;;;;;;;6.25;3.33;;;;;;;-0.32;100.00;95431.97;4989763;28;20046;-68
2022/11/08 05:05:59;;;;;;;8.85;3.35;;;;;;;-0.38;100.00;95432.78;4993003;28;20034;-68
2022/11/08 05:08:25;;;;;;;7.28;2.97;;;;;;;-0.43;100.00;95429.97;4999743;28;20056;-69
2022/11/08 05:10:50;;;;;;;8.23;3.03;;;;;;;-0.45;100.00;95434.56;4990216;28;20058;-69
2022/11/08 05:13:16;;;;;;;7.65;3.22;;;;;;;-0.45;100.00;95424.22;4980793;28;20046;-69
2022/11/08 05:15:41;;;;;;;14.15;3.20;;;;;;;-0.49;100.00;95417.88;4982007;28;20051;-69
2022/11/08 05:18:07;;;;;;;6.30;2.60;;;;;;;-0.51;100.00;95417.28;4969938;28;20476;-70
2022/11/08 05:23:23;;;;;;;7.40;3.20;;;;;;;-0.59;100.00;95411.34;5003028;28;20038;-70
2022/11/08 05:25:48;;;;;;;7.82;3.20;;;;;;;-0.55;100.00;95416.88;4986106;28;20101;-70
2022/11/08 05:28:14;;;;;;;6.43;3.13;;;;;;;-0.58;100.00;95401.78;4998313;28;20050;-69
2022/11/08 05:30:40;;;;;;;7.47;3.30;;;;;;;-0.57;100.00;95411.91;5005584;28;20038;-69
2022/11/08 05:33:05;;;;;;;9.25;3.53;;;;;;;-0.53;100.00;95415.69;4990127;28;20563;-69
2022/11/08 05:35:34;;;;;;;9.30;3.67;;;;;;;-0.44;100.00;95407.72;4982591;28;20050;-69
2022/11/08 05:38:00;;;;;;;6.68;2.92;;;;;;;-0.55;100.00;95409.94;4990407;28;20058;-69
2022/11/08 05:40:26;;;;;;;7.20;3.22;;;;;;;-0.62;100.00;95405.75;4996881;28;20038;-69
2022/11/08 05:42:53;;;;;;;8.57;3.05;;;;;;;-0.63;100.00;95404.97;4995123;28;20696;-69
2022/11/08 05:45:18;;;;;;;11.23;3.20;;;;;;;-0.65;100.00;95406.94;4984462;28;20046;-69
2022/11/08 05:47:45;;;;;;;7.28;3.30;;;;;;;-0.67;100.00;95398.63;4996711;28;20418;-68
2022/11/08 05:50:11;;;;;;;10.60;3.45;;;;;;;-0.66;100.00;95396.81;4990550;28;20137;-69
2022/11/08 05:52:37;;;;;;;10.43;3.40;;;;;;;-0.72;100.00;95393.25;4989726;28;20042;-69
2022/11/08 05:55:02;;;;;;;7.75;3.05;;;;;;;-0.72;100.00;95395.81;4984992;28;20073;-69
2022/11/08 05:57:28;;;;;;;12.25;3.40;;;;;;;-0.73;100.00;95394.25;4991210;28;20042;-68
2022/11/08 05:59:53;;;;;;;8.43;2.92;;;;;;;-0.76;100.00;95395.44;4996834;28;20050;-71
2022/11/08 06:02:19;;;;;;;9.38;3.72;;;;;;;-0.69;100.00;95392.84;5009418;28;20038;-68
2022/11/08 06:04:44;;;;;;;6.45;3.28;;;;;;;-0.67;100.00;95403.78;4982809;28;20050;-66
2022/11/08 06:07:10;;;;;;;8.50;3.17;;;;;;;-0.74;100.00;95408.16;4993346;28;20412;-68
2022/11/08 06:09:36;;;;;;;6.63;2.97;;;;;;;-0.78;100.00;95409.56;5002744;28;20046;-67
2022/11/08 06:12:01;;;;;;;10.57;3.50;;;;;;;-0.81;100.00;95407.38;4993430;28;20050;-70
2022/11/08 06:14:27;;;;;;;7.90;3.40;;;;;;;-0.83;100.00;95405.00;4992420;28;20049;-68
2022/11/08 06:16:52;;;;;;;8.43;4.07;;;;;;;-0.73;100.00;95404.59;4988806;28;20085;-68
2022/11/08 06:19:18;;;;;;;12.52;3.75;;;;;;;-0.73;100.00;95404.59;4993966;28;20050;-67
2022/11/08 06:21:43;;;;;;;10.52;3.75;;;;;;;-0.66;100.00;95400.22;4990862;28;20073;-68
2022/11/08 06:24:09;;;;;;;8.98;3.17;;;;;;;-0.65;100.00;95412.13;4991920;28;20046;-67
2022/11/08 06:26:34;;;;;;;10.18;3.25;;;;;;;-0.68;100.00;95407.34;4988575;28;20154;-67
2022/11/08 06:29:00;;;;;;;6.75;3.13;;;;;;;-0.71;100.00;95410.34;4991861;28;20744;-70
2022/11/08 06:31:26;;;;;;;14.45;3.53;;;;;;;-0.73;100.00;95409.78;5005521;28;20038;-67
2022/11/08 06:33:51;;;;;;;6.85;3.22;;;;;;;-0.74;100.00;95408.16;4993052;28;20046;-68
2022/11/08 06:36:19;;;;;;;7.40;3.15;;;;;;;-0.73;100.00;95414.94;4990609;28;20760;-68
2022/11/08 06:38:45;;;;;;;11.55;3.35;;;;;;;-0.69;100.00;95413.50;4992696;28;20488;-67
2022/11/08 06:41:17;;;;;;;7.32;3.10;;;;;;;-0.66;100.00;95413.13;4991857;28;20100;-68
2022/11/08 06:43:42;;;;;;;9.63;3.65;;;;;;;-0.61;100.00;95417.69;5000615;28;20085;-67
2022/11/08 06:46:08;;;;;;;8.73;3.40;;;;;;;-0.57;100.00;95424.84;4989438;28;20046;-67
2022/11/08 06:48:33;;;;;;;8.68;3.10;;;;;;;-0.48;100.00;95416.88;4989255;28;20070;-67
2022/11/08 06:51:00;;;;;;;7.30;3.08;;;;;;;-0.44;100.00;95418.06;5005846;28;20042;-68
2022/11/08 06:53:25;;;;;;;8.00;3.35;;;;;;;-0.42;100.00;95410.91;5003334;28;20085;-67
2022/11/08 06:55:51;;;;;;;9.55;3.45;;;;;;;-0.32;100.00;95420.84;4991991;28;20050;-67
2022/11/08 06:58:16;;;;;;;8.93;3.45;;;;;;;-0.27;100.00;95418.44;4982222;28;20046;-68
2022/11/08 07:00:42;;;;;;;10.35;3.50;;;;;;;-0.16;100.00;95419.59;4993044;28;20411;-67
2022/11/08 07:03:08;;;;;;;9.02;3.35;;;;;;;-0.14;100.00;95417.59;5000033;28;20057;-67
2022/11/08 07:05:34;;;;;;;6.32;3.05;;;;;;;-0.05;100.00;95416.38;4986774;28;20049;-67
2022/11/08 07:08:00;;;;;;;12.27;3.90;;;;;;;-0.01;100.00;95423.50;4988573;28;20034;-68
2022/11/08 07:10:29;;;;;;;7.57;3.65;;;;;;;0.09;100.00;95425.69;4985963;28;20092;-68
2022/11/08 07:13:06;;;;;;;17.63;4.03;;;;;;;0.20;100.00;95423.44;4990976;28;20119;-68
2022/11/08 07:15:33;;;;;;;8.35;3.92;;;;;;;0.24;100.00;95434.97;4991218;28;20053;-67
2022/11/08 07:18:00;;;;;;;9.30;3.97;;;;;;;0.34;100.00;95435.31;4993194;28;20523;-67
2022/11/08 07:20:26;;;;;;;11.77;4.07;;;;;;;0.45;100.00;95426.91;4991559;28;20499;-67
2022/11/08 07:22:56;;;;;;;9.05;3.45;;;;;;;0.51;100.00;95428.66;4992352;28;20057;-67
2022/11/08 07:25:22;;;;;;;7.82;3.97;;;;;;;0.57;100.00;95424.44;4994214;28;20042;-68
2022/11/08 07:27:47;;;;;;;9.48;4.35;;;;;;;0.67;100.00;95424.78;4995413;28;20108;-68
2022/11/08 07:30:13;;;;;;;12.60;4.13;;;;;;;0.75;100.00;95420.34;4991155;28;20651;-69
2022/11/08 07:32:38;;;;;;;10.00;4.28;;;;;;;0.79;100.00;95432.69;4991336;28;20046;-68
2022/11/08 07:35:04;;;;;;;14.25;4.00;;;;;;;0.87;100.00;95429.03;4992768;28;20041;-68
2022/11/08 07:37:31;;;;;;;11.85;4.07;;;;;;;0.97;100.00;95428.59;5003430;28;20037;-68
2022/11/08 07:39:57;;;;;;;14.48;4.88;;;;;;;1.02;100.00;95426.94;5000839;28;20105;-68
2022/11/08 07:42:22;;;;;;;13.30;4.47;;;;;;;1.16;100.00;95417.25;4990961;28;20495;-69
2022/11/08 07:44:48;;;;;;;13.55;4.50;;;;;;;1.30;100.00;95412.75;4987423;28;20129;-73
2022/11/08 07:47:13;;;;;;;11.48;4.15;;;;;;;1.42;100.00;95410.25;4990863;28;20100;-68
2022/11/08 07:49:38;;;;;;;15.98;4.50;;;;;;;1.50;100.00;95411.81;4988524;28;20132;-68
2022/11/08 07:52:05;;;;;;;13.15;4.22;;;;;;;1.55;100.00;95415.34;4991549;28;20045;-69
2022/11/08 07:54:30;;;;;;;12.45;4.65;;;;;;;1.72;100.00;95404.38;4987912;28;20047;-67
2022/11/08 07:56:56;;;;;;;13.32;4.15;;;;;;;1.86;100.00;95408.44;4987941;28;20121;-68
2022/11/08 07:59:21;;;;;;;10.43;4.13;;;;;;;1.96;100.00;95410.53;4983962;28;20053;-68
2022/11/08 08:01:47;;;;;;;7.78;3.40;;;;;;;2.01;100.00;95402.06;5002219;28;20458;-68
2022/11/08 08:04:12;;;;;;;10.52;3.15;;;;;;;2.14;100.00;95412.31;4982908;28;20051;-68
2022/11/08 08:06:38;;;;;;;9.70;3.85;;;;;;;2.42;100.00;95397.97;4985285;28;20174;-67
2022/11/08 08:09:03;;;;;;;7.53;3.40;;;;;;;2.57;100.00;95398.38;4987255;28;20161;-67
2022/11/08 08:11:29;;;;;;;8.63;3.08;;;;;;;2.69;100.00;95400.22;4990410;28;20058;-68
2022/11/08 08:13:55;;;;;;;5.68;2.90;;;;;;;2.83;100.00;95393.00;4989620;28;20046;-68
2022/11/08 08:16:21;;;;;;;7.32;2.80;;;;;;;3.34;100.00;95388.22;4987825;28;20053;-68
2022/11/08 08:18:50;;;;;;;5.68;2.58;;;;;;;3.63;100.00;95389.91;4988154;28;20046;-68
2022/11/08 08:21:16;;;;;;;5.28;2.10;;;;;;;4.02;100.00;95394.56;4988903;28;20045;-68
2022/11/08 08:23:42;;;;;;;4.40;2.00;;;;;;;4.37;100.00;95396.31;4990543;28;20038;-67
2022/11/08 08:26:08;;;;;;;3.33;1.95;;;;;;;4.66;100.00;95397.06;4988231;28;20965;-68
2022/11/08 08:28:33;;;;;;;4.32;1.90;;;;;;;4.81;100.00;95390.53;4975808;28;20504;-68
2022/11/08 08:30:59;;;;;;;5.22;2.20;;;;;;;4.84;100.00;95395.28;4989277;28;20118;-67
2022/11/08 08:33:25;;;;;;;3.08;1.67;;;;;;;4.84;100.00;95400.50;4984811;28;20050;-68
2022/11/08 08:35:52;;;;;;;3.90;2.08;;;;;;;5.38;100.00;95400.81;4986450;28;20046;-68
2022/11/08 08:38:19;;;;;;;5.35;2.17;;;;;;;5.73;100.00;95391.94;4985536;28;20043;-67
2022/11/08 08:40:44;;;;;;;6.38;2.13;;;;;;;5.70;100.00;95402.84;4982099;28;20117;-67
2022/11/08 08:43:10;;;;;;;3.05;1.73;;;;;;;5.77;100.00;95396.66;4988472;28;20113;-67
2022/11/08 08:45:35;;;;;;;5.07;2.10;;;;;;;6.11;100.00;95396.59;4984129;28;20058;-69
2022/11/08 08:48:02;;;;;;;3.47;1.90;;;;;;;6.84;100.00;95383.22;4973986;28;20057;-68
2022/11/08 08:50:29;;;;;;;5.43;1.92;;;;;;;7.08;100.00;95389.72;5000968;28;20096;-68
2022/11/08 08:52:59;;;;;;;3.25;1.88;;;;;;;6.96;100.00;95390.91;4992694;28;20046;-67
2022/11/08 08:55:26;;;;;;;4.80;1.95;;;;;;;7.11;100.00;95389.22;5004452;28;20026;-67
2022/11/08 08:57:51;;;;;;;6.30;2.30;;;;;;;7.37;100.00;95392.03;4992780;28;20054;-67
2022/11/08 09:00:17;;;;;;;3.88;1.80;;;;;;;7.75;100.00;95387.53;5011283;28;20050;-67
2022/11/08 09:02:43;;;;;;;6.03;2.20;;;;;;;7.95;100.00;95391.31;5013106;28;20089;-67
2022/11/08 09:05:09;;;;;;;5.55;2.10;;;;;;;8.35;100.00;95392.50;5006278;28;20047;-67
2022/11/08 09:07:36;;;;;;;7.72;2.28;;;;;;;8.64;100.00;95392.09;4993279;28;20053;-67
2022/11/08 09:10:02;;;;;;;4.53;2.05;;;;;;;8.64;100.00;95389.47;5008353;28;20034;-67
2022/11/08 09:12:28;;;;;;;4.50;2.10;;;;;;;8.79;100.00;95397.38;5014467;28;20019;-67
2022/11/08 09:14:53;;;;;;;4.50;2.05;;;;;;;8.91;100.00;95402.38;5011459;28;20070;-66
2022/11/08 09:17:19;;;;;;;3.88;2.15;;;;;;;9.02;100.00;95397.91;4994485;28;20058;-68
2022/11/08 09:19:45;;;;;;;5.20;2.35;;;;;;;9.01;100.00;95396.34;4989910;28;20042;-68
2022/11/08 09:22:11;;;;;;;6.78;3.28;;;;;;;8.91;100.00;95396.34;4989560;28;20042;-68
2022/11/08 09:24:36;;;;;;;6.82;3.72;;;;;;;8.92;100.00;95397.91;4990734;28;20054;-68
2022/11/08 09:27:02;;;;;;;5.53;3.13;;;;;;;8.99;100.00;95393.19;4982058;28;20046;-68
2022/11/08 09:29:29;;;;;;;6.70;2.83;;;;;;;9.11;100.00;95391.09;4990266;28;20050;-68
2022/11/08 09:31:55;;;;;;;5.07;2.60;;;;;;;9.38;100.00;95384.78;4995090;28;20046;-68
2022/11/08 09:34:21;;;;;;;4.00;2.30;;;;;;;9.70;100.00;95386.31;4995338;28;20085;-68
2022/11/08 09:36:46;;;;;;;5.80;2.03;;;;;;;10.18;100.00;95381.41;4977378;28;20046;-68
2022/11/08 09:39:12;;;;;;;6.28;2.70;;;;;;;10.57;100.00;95383.38;4977836;28;20054;-68
2022/11/08 09:42:10;;;;;;;5.47;2.65;;;;;;;11.61;100.00;95389.44;4994740;28;20053;-68
2022/11/08 09:45:09;;;;;;;6.53;2.20;;;;;;;12.05;100.00;95386.91;4989687;28;20050;-68
2022/11/08 09:47:38;;;;;;;7.18;2.55;;;;;;;12.58;100.00;95394.69;4987218;28;20050;-68
2022/11/08 09:50:15;;;;;;;5.95;2.08;;;;;;;14.40;100.00;95385.38;4994211;28;20046;-68
2022/11/08 09:52:44;;;;;;;4.55;2.35;;;;;;;13.88;90.31;95391.66;4993415;28;20039;-68
2022/11/08 09:55:19;;;;;;;3.90;2.00;;;;;;;13.77;94.04;95387.63;4992947;28;20113;-67
2022/11/08 09:57:51;;;;;;;9.73;2.08;;;;;;;14.31;95.39;95382.59;4997380;28;20046;-68
2022/11/08 10:00:17;;;;;;;4.55;1.98;;;;;;;14.27;93.48;95377.13;4995494;28;20050;-68
2022/11/08 10:02:43;;;;;;;4.00;2.00;;;;;;;15.50;88.56;95372.81;4993727;28;20062;-68
2022/11/08 10:05:14;;;;;;;4.40;2.17;;;;;;;14.92;88.53;95375.25;4993200;28;20696;-68
2022/11/08 10:07:59;;;;;;;4.22;2.13;;;;;;;16.77;90.43;95370.44;4994348;28;20416;-68
2022/11/08 10:10:49;;;;;;;4.20;1.90;;;;;;;17.86;62.10;95367.00;4994046;28;20050;-68
2022/11/08 10:13:47;;;;;;;4.65;2.08;;;;;;;17.34;58.54;95371.38;4994046;28;20392;-68
2022/11/08 10:16:31;;;;;;;3.75;2.10;;;;;;;17.57;55.55;95373.81;4974959;28;20126;-68
2022/11/08 10:19:25;;;;;;;6.25;3.03;;;;;;;15.61;77.84;95363.53;4974543;28;20416;-66
2022/11/08 10:22:12;;;;;;;3.60;1.92;;;;;;;14.76;87.49;95358.94;4982175;28;20046;-69
2022/11/08 10:24:50;;;;;;;4.72;2.10;;;;;;;14.02;92.23;95360.69;4983894;28;20097;-71
2022/11/08 10:27:30;;;;;;;4.20;2.08;;;;;;;13.84;99.12;95367.63;4987502;28;20125;-66
2022/11/08 10:30:01;;;;;;;5.03;2.45;;;;;;;13.19;100.00;95360.56;4984779;28;20046;-67
2022/11/08 10:32:29;;;;;;;4.35;2.63;;;;;;;12.77;100.00;95364.88;4982990;28;20058;-67
2022/11/08 10:35:03;;;;;;;8.68;2.83;;;;;;;12.25;100.00;95365.56;4973907;28;20059;-67
2022/11/08 10:37:30;;;;;;;11.82;2.72;;;;;;;12.32;100.00;95359.16;5000382;28;20046;-67
2022/11/08 10:40:10;;;;;;;7.22;2.50;;;;;;;12.08;100.00;95357.31;5001042;28;20049;-68
2022/11/08 10:42:50;;;;;;;4.43;2.60;;;;;;;12.10;100.00;95352.56;5001706;28;20049;-68
2022/11/08 10:45:16;;;;;;;4.18;2.22;;;;;;;11.96;100.00;95347.97;4996849;28;20053;-67
2022/11/08 10:47:44;;;;;;;4.78;2.10;;;;;;;11.90;100.00;95338.53;4994255;28;20058;-70
2022/11/08 10:50:13;;;;;;;5.07;2.25;;;;;;;12.09;100.00;95338.56;4983703;28;20073;-68
2022/11/08 10:52:54;;;;;;;7.75;2.28;;;;;;;12.20;100.00;95347.16;4974216;28;20138;-68
2022/11/08 10:55:27;;;;;;;3.92;2.00;;;;;;;12.65;100.00;95342.31;4992205;28;20105;-69
2022/11/08 10:57:52;;;;;;;6.57;2.10;;;;;;;13.35;100.00;95342.59;4992753;28;20109;-69
2022/11/08 11:00:21;;;;;;;5.57;2.70;;;;;;;13.71;100.00;95343.84;4987192;28;20437;-70
2022/11/08 11:03:03;;;;;;;10.52;2.58;;;;;;;14.98;97.44;95342.25;4985645;28;20041;-68
2022/11/08 11:05:35;;;;;;;5.63;2.30;;;;;;;16.26;84.91;95338.19;4995093;28;20050;-69
2022/11/08 11:08:21;;;;;;;5.07;2.00;;;;;;;17.08;72.00;95332.31;4998916;28;20046;-68
2022/11/08 11:10:48;;;;;;;6.88;2.28;;;;;;;16.80;61.48;95332.59;4978493;28;20097;-67
2022/11/08 11:13:17;;;;;;;9.98;2.65;;;;;;;17.34;60.45;95328.81;4986864;28;20042;-68
2022/11/08 11:15:52;;;;;;;10.43;2.30;;;;;;;18.56;55.55;95326.69;4980591;28;20049;-67
2022/11/08 11:18:30;;;;;;;4.50;2.25;;;;;;;19.59;55.80;95325.31;4984118;28;20042;-68
2022/11/08 11:21:21;;;;;;;4.63;1.90;;;;;;;19.45;56.98;95329.09;4995979;28;20088;-69
2022/11/08 11:23:52;;;;;;;4.22;2.05;;;;;;;19.43;56.29;95331.28;4997154;28;20049;-69
2022/11/08 11:26:20;;;;;;;4.90;2.17;;;;;;;20.04;51.87;95324.47;4990813;28;20078;-69
2022/11/08 11:29:05;;;;;;;3.67;2.03;;;;;;;18.37;50.96;95325.25;4979951;28;20046;-70
2022/11/08 11:31:33;;;;;;;8.52;2.38;;;;;;;20.59;51.53;95315.06;4987916;28;20038;-69
2022/11/08 11:34:17;;;;;;;5.95;2.35;;;;;;;19.86;42.97;95322.03;4992786;28;20050;-69
2022/11/08 11:36:51;;;;;;;7.10;2.60;;;;;;;20.09;47.75;95318.91;4998406;28;20096;-69
2022/11/08 11:39:54;;;;;;;5.25;2.10;;;;;;;21.20;41.53;95315.19;4977395;28;20046;-69
2022/11/08 11:42:30;;;;;;;4.93;2.33;;;;;;;21.96;44.16;95318.63;4986035;28;20043;-71
2022/11/08 11:45:01;;;;;;;7.50;2.40;;;;;;;22.96;38.99;95313.88;4984599;28;20042;-69
2022/11/08 11:47:38;;;;;;;7.40;2.30;;;;;;;22.89;40.55;95308.38;4991131;28;20050;-73
2022/11/08 11:50:20;;;;;;;5.72;2.50;;;;;;;21.89;42.09;95310.44;4988635;28;20049;-68
2022/11/08 11:52:45;;;;;;;5.32;2.40;;;;;;;22.77;42.54;95300.47;4992266;28;20054;-68